• Join FlightAware (Why Join?)
  • Login
  • US Flag 
06:47AM EDT


 

Airport Tracker/Info


-or-


 

Live Flight TrackerFlight Track Log ✈ N7073N ✈ 04-May-2013 ✈ 1D2 - KLVN

Flight Track Log - Related Links

Times and Time Zones

All times are in EDT time to prevent confusion due to time zone crossing. See the N7073N flight status page for this flight to view local times or setup timezone preferences in your user account.

Time Position Orientation Groundspeed Altitude Reporting Facility
EDT Latitude Longitude Course Direction KTS MPH feet Rate Location/Type
12:20PM 42.3303 -83.4594 271° West 91 105 1,200  Level Cleveland Center
12:22PM 42.3311 -83.5183 271° West 128 147 3,000 960 Climbing Cleveland Center
12:23PM 42.3444 -83.5667 290° West 138 159 3,900 840 Climbing Cleveland Center
12:24PM 42.3578 -83.6150 290° West 148 170 4,800 840 Climbing Cleveland Center
12:25PM 42.3750 -83.6694 293° West 152 175 5,700 840 Climbing Cleveland Center
12:26PM 42.3883 -83.7206 289° West 149 171 6,600 600 Climbing Cleveland Center
12:27PM 42.4053 -83.7778 292° West 155 178 7,000 60 Climbing Cleveland Center
12:28PM 42.4358 -83.8806 292° West 170 196 6,900 180 Descending Chicago Center
12:29PM 42.4569 -83.9467 293° West 182 209 7,500 600 Climbing Chicago Center
12:30PM 42.4725 -84.0039 290° West 173 199 8,200 720 Climbing Chicago Center
12:31PM 42.4872 -84.0589 290° West 160 184 9,000 720 Climbing Chicago Center
12:33PM 42.5017 -84.1125 290° West 155 178 9,700 480 Climbing Chicago Center
12:34PM 42.5194 -84.1803 290° West 157 181 10,100 180 Climbing Chicago Center
12:35PM 42.5392 -84.2461 292° West 179 206 10,100  Level Chicago Center
12:36PM 42.5592 -84.3117 293° West 188 216 10,100  Level Chicago Center
12:37PM 42.5764 -84.3783 289° West 188 216 10,100  Level Chicago Center
12:38PM 42.5972 -84.4464 293° West 193 222 10,100  Level Chicago Center
12:39PM 42.6147 -84.5125 290° West 189 217 10,100  Level Chicago Center
12:40PM 42.6328 -84.5789 290° West 188 216 10,100  Level Chicago Center
12:41PM 42.6550 -84.6581 291° West 188 216 10,100  Level Chicago Center
12:42PM 42.6733 -84.7239 291° West 188 216 10,100  Level Chicago Center
12:43PM 42.6919 -84.7900 291° West 188 216 10,100  Level Chicago Center
12:44PM 42.7100 -84.8564 290° West 188 216 10,100  Level Chicago Center
12:45PM 42.7281 -84.9225 290° West 188 216 10,100  Level Chicago Center
12:46PM 42.7458 -84.9881 290° West 186 214 10,100  Level Chicago Center
12:47PM 42.7639 -85.0522 291° West 183 211 10,100  Level Chicago Center
12:48PM 42.7853 -85.1339 290° West 189 217 10,100  Level Chicago Center
12:49PM 42.8025 -85.2025 289° West 192 221 10,100  Level Chicago Center
12:50PM 42.8208 -85.2686 291° West 189 217 10,100  Level Chicago Center
12:51PM 42.8389 -85.3339 291° West 187 215 10,100  Level Chicago Center
12:52PM 42.8564 -85.3983 290° West 183 211 10,100  Level Chicago Center
12:53PM 42.8739 -85.4628 290° West 181 208 10,100  Level Chicago Center
12:54PM 42.8914 -85.5300 290° West 187 215 10,100  Level Chicago Center
12:55PM 42.9117 -85.6086 289° West 185 213 10,100  Level Chicago Center
12:56PM 42.9294 -85.6750 290° West 185 213 10,100  Level Chicago Center
12:57PM 42.9469 -85.7394 290° West 183 211 10,100  Level Chicago Center
12:58PM 42.9642 -85.8053 290° West 184 212 10,100  Level Chicago Center
12:59PM 42.9817 -85.8714 290° West 185 213 10,100 -60 Level Chicago Center
01:00PM 42.9994 -85.9389 290° West 187 215 10,000 -60 Descending Chicago Center
01:01PM 43.0178 -86.0083 290° West 188 216 10,000  Level Chicago Center
01:02PM 43.0361 -86.0772 290° West 189 217 10,000  Level Chicago Center
01:03PM 43.0539 -86.1444 290° West 186 214 10,000  Level Chicago Center
01:04PM 43.0711 -86.2117 289° West 187 215 10,000  Level Chicago Center
01:05PM 43.0889 -86.2806 289° West 192 221 10,000  Level Chicago Center
01:06PM 43.1092 -86.3597 289° West 186 214 10,000  Level Chicago Center
01:07PM 43.1267 -86.4275 290° West 188 216 10,000  Level Chicago Center
01:08PM 43.1436 -86.4950 289° West 189 217 10,000  Level Chicago Center
01:10PM 43.1611 -86.5622 290° West 189 217 10,000  Level Chicago Center
01:11PM 43.1783 -86.6300 289° West 189 217 10,000  Level Chicago Center
01:12PM 43.1964 -86.6992 290° West 191 220 10,000  Level Chicago Center
01:13PM 43.2136 -86.7664 289° West 188 216 10,000  Level Chicago Center
01:14PM 43.2333 -86.8481 288° West 188 216 10,000  Level Chicago Center
01:15PM 43.2506 -86.9164 289° West 189 217 10,000  Level Chicago Center
01:16PM 43.2683 -86.9856 289° West 192 221 10,000  Level Chicago Center
01:17PM 43.2856 -87.0539 289° West 191 220 10,000  Level Chicago Center
01:18PM 43.3025 -87.1214 289° West 189 217 10,000  Level Chicago Center
01:19PM 43.3197 -87.1908 289° West 192 221 10,000  Level Chicago Center
01:20PM 43.3369 -87.2603 289° West 192 221 10,000  Level Chicago Center
01:21PM 43.3569 -87.3433 288° West 192 221 10,000  Level Chicago Center
01:22PM 43.3739 -87.4144 288° West 190 219 10,000  Level Chicago Center
01:23PM 43.3911 -87.4836 289° West 191 220 10,000  Level Chicago Center
01:24PM 43.4022 -87.5542 282° West 191 220 10,000  Level Chicago Center
01:25PM 43.4047 -87.6261 273° West 189 217 10,000  Level Chicago Center
01:26PM 43.4100 -87.6969 276° West 187 215 10,000  Level Chicago Center
01:27PM 43.4139 -87.7686 274° West 188 216 10,000  Level Chicago Center
01:28PM 43.4189 -87.8514 275° West 187 215 10,000  Level Chicago Center
01:29PM 43.4236 -87.9219 275° West 186 214 10,000  Level Chicago Center
01:30PM 43.4275 -87.9928 274° West 186 214 10,000  Level Chicago Center
01:31PM 43.4322 -88.0631 275° West 186 214 10,000  Level Chicago Center
01:32PM 43.4364 -88.1350 275° West 187 215 10,000  Level Chicago Center
01:33PM 43.4411 -88.2053 275° West 185 213 10,000  Level Chicago Center
01:34PM 43.4458 -88.2867 275° West 184 212 10,000  Level Chicago Center
01:35PM 43.4497 -88.3569 274° West 184 212 10,000  Level Chicago Center
01:36PM 43.4536 -88.4264 274° West 183 211 10,000  Level Chicago Center
01:37PM 43.4575 -88.5003 274° West 181 208 10,000  Level Chicago Center
01:38PM 43.4622 -88.5728 275° West 183 211 10,000  Level Chicago Center
01:39PM 43.4664 -88.6436 275° West 185 213 10,000  Level Chicago Center
01:40PM 43.4697 -88.7139 274° West 185 213 10,000  Level Chicago Center
01:41PM 43.4736 -88.7828 274° West 183 211 10,000  Level Chicago Center
01:42PM 43.4769 -88.8517 274° West 181 208 10,000  Level Chicago Center
01:43PM 43.4811 -88.9233 275° West 187 215 10,000  Level Chicago Center
01:44PM 43.4842 -88.9931 273° West 184 212 10,000  Level Chicago Center
01:46PM 43.4892 -89.0756 275° West 185 213 10,000  Level Chicago Center
01:47PM 43.4928 -89.1467 274° West 186 214 10,000  Level Chicago Center
01:48PM 43.4967 -89.2178 274° West 186 214 10,000  Level Chicago Center
01:49PM 43.4992 -89.2869 273° West 183 211 10,000  Level Chicago Center
01:50PM 43.5031 -89.3583 274° West 185 213 10,000  Level Chicago Center
01:51PM 43.5061 -89.4300 273° West 186 214 10,000  Level Chicago Center
01:52PM 43.5094 -89.5017 274° West 187 215 10,000  Level Chicago Center
01:53PM 43.5136 -89.5842 274° West 186 214 10,000  Level Chicago Center
01:54PM 43.5167 -89.6550 273° West 185 213 10,000  Level Chicago Center
01:55PM 43.5197 -89.7269 273° West 187 215 10,000  Level Chicago Center
01:56PM 43.5236 -89.7958 274° West 183 211 10,000  Level Chicago Center
01:57PM 43.5442 -89.8647 292° West 190 219 10,000  Level Chicago Center
01:58PM 43.5608 -89.9319 289° West 189 217 10,000  Level Chicago Center
01:59PM 43.5825 -90.0200 289° West 184 212 10,000  Level Minneapolis Center
02:00PM 43.5994 -90.0903 288° West 184 212 10,000  Level Minneapolis Center
02:01PM 43.6158 -90.1600 288° West 183 211 10,000  Level Minneapolis Center
02:02PM 43.6322 -90.2297 288° West 183 211 10,000  Level Minneapolis Center
02:03PM 43.6469 -90.2939 288° West 182 209 10,000  Level Minneapolis Center
02:04PM 43.6642 -90.3639 289° West 184 212 10,000  Level Minneapolis Center
02:05PM 43.6797 -90.4336 287° West 183 211 10,000  Level Minneapolis Center
02:07PM 43.7058 -90.5544 287° West 182 209 10,000  Level Chicago Center
02:08PM 43.7217 -90.6200 288° West 182 209 10,000  Level Chicago Center
02:09PM 43.7364 -90.6858 287° West 181 208 10,000  Level Chicago Center
02:10PM 43.7517 -90.7514 288° West 181 208 10,000  Level Chicago Center
02:11PM 43.7664 -90.8175 287° West 181 208 10,000  Level Chicago Center
02:12PM 43.7814 -90.8831 288° West 181 208 10,000  Level Chicago Center
02:13PM 43.8006 -90.9617 289° West 181 208 10,000  Level Chicago Center
02:14PM 43.8150 -91.0272 287° West 181 208 10,000  Level Chicago Center
02:15PM 43.8303 -91.0928 288° West 181 208 10,000  Level Chicago Center
02:16PM 43.8342 -91.1083 289° West 180 207 10,000  Level Minneapolis Center
02:17PM 43.8528 -91.1928 287° West 179 206 10,000  Level Minneapolis Center
02:18PM 43.8678 -91.2564 288° West 179 206 10,000  Level Minneapolis Center
02:19PM 43.8828 -91.3269 286° West 185 213 10,000  Level Minneapolis Center
02:20PM 43.8969 -91.3950 286° West 177 204 10,000  Level Minneapolis Center
02:21PM 43.9131 -91.4658 288° West 180 207 10,000  Level Minneapolis Center
02:22PM 43.9392 -91.5306 299° West 185 213 10,000  Level Minneapolis Center
02:23PM 43.9606 -91.5778 302° West 180 207 10,000  Level Minneapolis Center
02:24PM 43.9917 -91.6517 300° West 182 209 10,000 -300 Level Minneapolis Center
02:25PM 44.0192 -91.7178 300° West 192 221 9,500 -720 Descending Minneapolis Center
02:26PM 44.0508 -91.7897 302° West 206 237 8,600 -780 Descending Minneapolis Center
02:27PM 44.0803 -91.8581 301° West 207 238 8,000 -300 Descending Minneapolis Center
02:28PM 44.1081 -91.9283 299° West 193 222 8,000  Level Minneapolis Center
02:29PM 44.1336 -91.9889 300° West 185 213 8,000  Level Minneapolis Center
02:30PM 44.1572 -92.0522 297° West 186 214 8,000  Level Minneapolis Center
02:31PM 44.1853 -92.1183 301° West 186 214 8,000  Level Minneapolis Center
02:32PM 44.2106 -92.1792 300° West 185 213 8,000 -180 Level Minneapolis Center
02:33PM 44.2386 -92.2461 300° West 187 215 7,700 -600 Descending Minneapolis Center
02:34PM 44.2672 -92.3142 300° West 206 237 6,800 -960 Descending Minneapolis Center
02:35PM 44.2981 -92.3861 301° West 201 231 5,800 -1,020 Descending Minneapolis Center
02:36PM 44.3275 -92.4528 302° West 203 234 4,800 -900 Descending Minneapolis Center
02:37PM 44.3533 -92.5156 300° West 201 231 4,000 -420 Descending Minneapolis Center
02:38PM 44.3786 -92.5800 299° West 189 217 4,000  Level Minneapolis Center
02:39PM 44.4064 -92.6536 298° West 179 206 4,000  Level Minneapolis Center
02:40PM 44.4311 -92.7147 300° West 181 208 4,000 -300 Level Minneapolis Center
02:41PM 44.4561 -92.7772 299° West 185 213 3,500 -540 Descending Minneapolis Center
02:42PM 44.4786 -92.8308 300° West 196 226 3,000 -300 Descending Minneapolis Center
02:43PM 44.5078 -92.9075 298° West 186 214 3,000  Level Minneapolis Center
02:44PM 44.5319 -92.9681 299° West 180 207 3,000  Level Minneapolis Center
02:46PM 44.5497 -93.0189 296° West 134 154 3,000  Level Minneapolis Center
02:47PM 44.5675 -93.0700 296° West 105 121 3,000  Level Minneapolis Center
02:48PM 44.5811 -93.1064 298° West 105 121 3,000 -300 Level Minneapolis Center
02:49PM 44.5950 -93.1389 301° West 99 114 2,400 -540 Descending Minneapolis Center
02:50PM 44.6056 -93.1689 296° West 86 99 1,900 -420 Descending Minneapolis Center
02:51PM 44.6164 -93.1981 298° West 84 97 1,500 -360 Descending Minneapolis Center
02:52PM 44.6303 -93.2378 296° West 84 97 1,200 -300 Descending Minneapolis Center